Weather at Macau International Airport

Public forecast

Using degrees Celsius for public forecast. Weather courtesy of forecast.io.

Current aviation weather report (METAR) for Macau International Airport

2022/12/05 13:30 (retrieved 28 minutes ago)

VMMC 051330Z 35018KT CAVOK 15/10 Q1020 NOSIG

Aviation forecast (TAF) for Macau International Airport

2022/12/05 12:21 (retrieved 2 hours ago)

TAF VMMC 051100Z 0512/0618 36016KT 9999 FEW030